createdAt,value
2022-11-19T00:01:53.565Z,100122.95
2022-11-19T00:04:25.814Z,100126.59
2022-11-19T00:06:56.453Z,100125.92
2022-11-19T00:09:28.283Z,100129.04
2022-11-19T00:12:17.696Z,100130.19
2022-11-19T00:14:49.329Z,100136.01
2022-11-19T00:17:21.306Z,100136.74
2022-11-19T00:19:53.004Z,100142.77
2022-11-19T00:22:24.635Z,100142.83
2022-11-19T00:24:56.344Z,100144.38
2022-11-19T00:27:28.111Z,100142.60
2022-11-19T00:30:05.527Z,100141.35
2022-11-19T00:32:43.807Z,100140.21
2022-11-19T00:35:16.051Z,100142.62
2022-11-19T00:37:47.700Z,100144.77
2022-11-19T00:40:19.604Z,100146.23
2022-11-19T00:43:05.196Z,100141.15
2022-11-19T00:45:36.870Z,100148.52
2022-11-19T00:48:08.960Z,100148.05
2022-11-19T00:50:40.680Z,100148.11
2022-11-19T00:53:12.349Z,100148.06
2022-11-19T00:55:44.041Z,100144.55
2022-11-19T00:58:16.547Z,100148.34
2022-11-19T01:00:48.268Z,100152.62
2022-11-19T01:03:19.936Z,100152.84
2022-11-19T01:05:52.085Z,100151.27
2022-11-19T01:08:25.137Z,100148.89
2022-11-19T01:10:57.335Z,100150.17
2022-11-19T01:13:38.300Z,100153.74
2022-11-19T01:16:12.580Z,100154.59
2022-11-19T01:18:45.683Z,100155.74
2022-11-19T01:21:18.672Z,100158.02
2022-11-19T01:23:50.728Z,100155.50
2022-11-19T01:26:22.575Z,100151.77
2022-11-19T01:28:54.893Z,100152.65
2022-11-19T01:31:29.130Z,100156.01
2022-11-19T01:34:01.259Z,100152.45
2022-11-19T01:36:33.438Z,100152.05
2022-11-19T01:39:05.119Z,100158.05
2022-11-19T01:41:36.799Z,100151.29
2022-11-19T01:44:09.544Z,100155.34
2022-11-19T01:46:42.593Z,100147.77
2022-11-19T01:49:19.088Z,100144.03
2022-11-19T01:51:53.289Z,100146.79
2022-11-19T01:54:30.037Z,100144.88
2022-11-19T01:57:06.415Z,100148.16
2022-11-19T01:59:39.545Z,100150.30
2022-11-19T02:02:12.907Z,100150.40
2022-11-19T02:04:46.676Z,100149.27
2022-11-19T02:07:26.206Z,100150.44
2022-11-19T02:09:59.305Z,100151.65
2022-11-19T02:12:43.852Z,100156.73
2022-11-19T02:15:32.592Z,100162.14
2022-11-19T02:18:20.276Z,100164.46
2022-11-19T02:21:05.232Z,100162.70
2022-11-19T02:24:19.223Z,100164.98
2022-11-19T02:27:15.019Z,100170.70
2022-11-19T02:30:09.619Z,100174.27
2022-11-19T02:33:04.734Z,100179.62
2022-11-19T02:35:46.608Z,100185.20
2022-11-19T02:38:35.585Z,100182.43
2022-11-19T02:41:29.658Z,100182.38
2022-11-19T02:44:23.059Z,100187.44
2022-11-19T02:46:56.785Z,100185.33
2022-11-19T02:49:32.997Z,100182.23
2022-11-19T02:52:06.085Z,100181.93
2022-11-19T02:54:37.899Z,100183.34
2022-11-19T02:57:10.517Z,100181.06
2022-11-19T03:00:04.397Z,100182.11
2022-11-19T03:02:59.893Z,100180.59
2022-11-19T03:05:36.778Z,100179.98
2022-11-19T03:08:09.067Z,100176.32
2022-11-19T03:10:51.510Z,100178.29
2022-11-19T03:13:45.293Z,100179.72
2022-11-19T03:16:40.601Z,100176.50
2022-11-19T03:19:21.673Z,100186.39
2022-11-19T03:21:58.809Z,100192.64
2022-11-19T03:24:35.337Z,100195.54
2022-11-19T03:27:14.759Z,100197.67
2022-11-19T03:29:51.797Z,100202.81
2022-11-19T03:32:27.325Z,100194.00
2022-11-19T03:35:02.791Z,100199.36
2022-11-19T03:37:38.901Z,100195.80
2022-11-19T03:40:16.222Z,100197.45
2022-11-19T03:42:51.536Z,100194.42
2022-11-19T03:45:26.935Z,100195.67
2022-11-19T03:48:02.615Z,100198.86
2022-11-19T03:50:41.137Z,100199.84
2022-11-19T03:53:13.219Z,100207.17
2022-11-19T03:55:50.367Z,100204.70
2022-11-19T03:58:24.555Z,100206.64
2022-11-19T04:00:56.986Z,100203.94
2022-11-19T04:03:29.189Z,100206.83
2022-11-19T04:06:00.897Z,100209.98
2022-11-19T04:08:33.067Z,100208.62
2022-11-19T04:13:35.374Z,100210.01
2022-11-19T04:16:07.672Z,100210.77
2022-11-19T04:18:39.380Z,100214.02
2022-11-19T04:21:11.413Z,100214.01
2022-11-19T04:23:43.513Z,100209.91
2022-11-19T04:26:15.519Z,100209.31
2022-11-19T04:28:47.290Z,100208.29
2022-11-19T04:31:19.012Z,100213.80
2022-11-19T04:33:51.371Z,100213.07
2022-11-19T04:36:23.221Z,100209.97
2022-11-19T04:38:54.906Z,100210.33
2022-11-19T04:41:26.685Z,100204.74
2022-11-19T04:43:58.508Z,100204.64
2022-11-19T04:46:30.270Z,100206.27
2022-11-19T04:49:01.994Z,100207.34
2022-11-19T04:51:34.243Z,100206.41
2022-11-19T04:54:08.554Z,100208.02
2022-11-19T04:56:41.192Z,100202.39
2022-11-19T04:59:13.069Z,100205.52
2022-11-19T05:01:44.815Z,100201.09
2022-11-19T05:04:16.588Z,100191.02
2022-11-19T05:06:48.675Z,100185.79
2022-11-19T05:09:20.580Z,100183.24
2022-11-19T05:11:52.610Z,100180.92
2022-11-19T05:14:29.908Z,100182.56
2022-11-19T05:17:02.363Z,100182.70
2022-11-19T05:19:34.290Z,100180.42
2022-11-19T05:22:06.216Z,100177.14
2022-11-19T05:24:38.713Z,100176.91
2022-11-19T05:27:09.130Z,100177.06
2022-11-19T05:29:40.834Z,100176.82
2022-11-19T05:32:12.860Z,100179.13
2022-11-19T05:34:44.690Z,100179.48
2022-11-19T05:37:16.389Z,100174.48
2022-11-19T05:39:48.233Z,100179.16
2022-11-19T05:42:19.990Z,100177.92
2022-11-19T05:44:51.792Z,100173.70
2022-11-19T05:47:24.343Z,100172.80
2022-11-19T05:49:56.937Z,100174.77
2022-11-19T05:52:27.145Z,100173.00
2022-11-19T05:54:58.942Z,100170.60
2022-11-19T05:57:30.681Z,100170.58
2022-11-19T06:00:02.423Z,100167.13
2022-11-19T06:02:44.041Z,100169.89
2022-11-19T06:05:15.989Z,100167.46
2022-11-19T06:07:47.738Z,100169.86
2022-11-19T06:10:19.389Z,100174.27
2022-11-19T06:12:51.621Z,100175.98
2022-11-19T06:15:23.400Z,100180.73
2022-11-19T06:17:57.032Z,100181.33
2022-11-19T06:20:28.817Z,100180.92
2022-11-19T06:23:00.441Z,100183.69
2022-11-19T06:25:32.175Z,100189.52
2022-11-19T06:28:03.960Z,100188.62
2022-11-19T06:30:35.767Z,100190.61
2022-11-19T06:33:07.687Z,100191.36
2022-11-19T06:35:39.484Z,100186.29
2022-11-19T06:38:11.176Z,100184.95
2022-11-19T06:40:42.951Z,100180.74
2022-11-19T06:43:14.651Z,100181.98
2022-11-19T06:45:46.869Z,100188.73
2022-11-19T06:48:18.724Z,100196.09
2022-11-19T06:50:51.126Z,100194.02
2022-11-19T06:53:23.574Z,100195.04
2022-11-19T06:55:57.947Z,100185.91
2022-11-19T06:58:30.168Z,100183.46
2022-11-19T07:01:02.181Z,100180.65
2022-11-19T07:03:35.902Z,100187.93
2022-11-19T07:06:08.363Z,100194.69
2022-11-19T07:08:40.217Z,100198.26
2022-11-19T07:11:27.108Z,100200.03
2022-11-19T07:14:00.322Z,100199.31
2022-11-19T07:16:34.228Z,100197.77
2022-11-19T07:19:09.022Z,100200.32
2022-11-19T07:21:40.747Z,100199.02
2022-11-19T07:24:13.234Z,100205.95
2022-11-19T07:26:45.370Z,100203.46
2022-11-19T07:29:18.898Z,100198.58
2022-11-19T07:31:53.442Z,100201.00
2022-11-19T07:34:25.592Z,100202.59
2022-11-19T07:36:57.517Z,100201.95
2022-11-19T07:39:29.574Z,100200.39
2022-11-19T07:42:19.168Z,100198.84
2022-11-19T07:44:57.268Z,100199.98
2022-11-19T07:47:28.230Z,100201.15
2022-11-19T07:50:01.052Z,100200.23
2022-11-19T07:52:33.654Z,100199.33
2022-11-19T07:55:04.378Z,100196.00
2022-11-19T07:57:36.784Z,100200.13
2022-11-19T08:00:12.348Z,100200.06
2022-11-19T08:02:47.675Z,100195.35
2022-11-19T08:05:18.557Z,100188.43
2022-11-19T08:07:50.828Z,100185.38
2022-11-19T08:10:31.416Z,100179.28
2022-11-19T08:13:05.731Z,100179.03
2022-11-19T08:15:38.027Z,100178.67
2022-11-19T08:18:16.156Z,100179.75
2022-11-19T08:20:49.719Z,100170.67
2022-11-19T08:23:24.025Z,100168.92
2022-11-19T08:25:56.871Z,100161.94
2022-11-19T08:28:30.180Z,100162.63
2022-11-19T08:31:11.276Z,100162.81
2022-11-19T08:33:44.130Z,100158.34
2022-11-19T08:36:15.804Z,100160.99
2022-11-19T08:38:48.189Z,100158.06
2022-11-19T08:41:37.484Z,100160.55
2022-11-19T08:44:09.825Z,100163.33
2022-11-19T08:46:42.661Z,100163.12
2022-11-19T08:49:14.830Z,100164.56
2022-11-19T08:51:46.516Z,100161.60
2022-11-19T08:54:18.996Z,100158.63
2022-11-19T08:56:49.543Z,100164.01
2022-11-19T08:59:22.322Z,100160.61
2022-11-19T09:01:54.220Z,100160.95
2022-11-19T09:04:26.502Z,100161.00
2022-11-19T09:06:58.307Z,100159.92
2022-11-19T09:09:30.824Z,100162.23
2022-11-19T09:12:03.864Z,100167.71
2022-11-19T09:14:37.925Z,100162.85
2022-11-19T09:17:09.767Z,100162.84
2022-11-19T09:19:41.562Z,100166.77
2022-11-19T09:22:13.720Z,100159.79
2022-11-19T09:24:48.516Z,100151.44
2022-11-19T09:27:23.939Z,100146.80
2022-11-19T09:29:56.925Z,100141.83
2022-11-19T09:32:30.394Z,100140.00
2022-11-19T09:35:04.104Z,100135.02
2022-11-19T09:37:36.871Z,100140.78
2022-11-19T09:40:10.604Z,100144.02
2022-11-19T09:42:53.359Z,100143.06
2022-11-19T09:45:27.880Z,100132.39
2022-11-19T09:48:18.517Z,100125.42
2022-11-19T09:50:55.001Z,100124.13
2022-11-19T09:53:30.392Z,100117.14
2022-11-19T09:56:03.702Z,100110.06
2022-11-19T09:58:41.431Z,100107.41
2022-11-19T10:01:17.449Z,100106.51
2022-11-19T10:03:51.541Z,100107.69
2022-11-19T10:06:28.888Z,100103.49
2022-11-19T10:09:27.120Z,100098.70
2022-11-19T10:12:14.933Z,100104.55
2022-11-19T10:15:06.593Z,100100.30
2022-11-19T10:17:51.052Z,100098.17
2022-11-19T10:20:36.429Z,100099.39
2022-11-19T10:23:16.286Z,100098.27
2022-11-19T10:25:50.398Z,100094.27
2022-11-19T10:28:27.533Z,100089.08
2022-11-19T10:31:13.821Z,100086.94
2022-11-19T10:33:51.651Z,100079.52
2022-11-19T10:36:30.679Z,100074.92
2022-11-19T10:39:08.982Z,100068.98
2022-11-19T10:41:47.508Z,100071.35
2022-11-19T10:44:40.465Z,100077.59
2022-11-19T10:47:16.114Z,100071.61
2022-11-19T10:49:52.236Z,100070.30
2022-11-19T10:52:32.092Z,100061.08
2022-11-19T10:55:14.043Z,100054.77
2022-11-19T10:57:49.815Z,100058.70
2022-11-19T11:00:22.185Z,100056.56
2022-11-19T11:02:59.303Z,100056.86
2022-11-19T11:05:32.108Z,100055.18
2022-11-19T11:08:12.931Z,100059.20
2022-11-19T11:10:48.128Z,100051.57
2022-11-19T11:13:58.907Z,100052.48
2022-11-19T11:16:45.305Z,100049.09
2022-11-19T11:19:19.917Z,100043.85
2022-11-19T11:21:54.819Z,100034.59
2022-11-19T11:24:34.474Z,100033.92
2022-11-19T11:27:23.387Z,100034.92
2022-11-19T11:30:16.233Z,100028.55
2022-11-19T11:32:48.081Z,100031.85
2022-11-19T11:35:35.627Z,100031.48
2022-11-19T11:38:07.913Z,100023.82
2022-11-19T11:40:38.788Z,100011.52
2022-11-19T11:43:19.252Z,100017.23
2022-11-19T11:45:59.999Z,100011.02
2022-11-19T11:48:38.519Z,100019.27
2022-11-19T11:51:23.835Z,100019.69
2022-11-19T11:54:18.391Z,100016.58
2022-11-19T11:56:50.769Z,100009.99
2022-11-19T11:59:29.803Z,100025.80
2022-11-19T12:02:07.845Z,100012.52
2022-11-19T12:04:39.940Z,100011.29
2022-11-19T12:07:19.648Z,100023.73
2022-11-19T12:10:03.606Z,100020.48
2022-11-19T12:12:41.517Z,100018.35
2022-11-19T12:15:24.059Z,100020.83
2022-11-19T12:18:02.194Z,100016.23
2022-11-19T12:20:40.671Z,100016.48
2022-11-19T12:23:34.650Z,100025.41
2022-11-19T12:26:14.008Z,100026.58
2022-11-19T12:29:04.267Z,100029.21
2022-11-19T12:31:47.984Z,100026.00
2022-11-19T12:34:41.463Z,100024.91
2022-11-19T12:37:28.678Z,100029.45
2022-11-19T12:40:15.351Z,100028.05
2022-11-19T12:42:58.216Z,100037.86
2022-11-19T12:45:42.486Z,100037.95
2022-11-19T12:48:31.093Z,100035.95
2022-11-19T12:51:13.021Z,100043.34
2022-11-19T12:53:59.230Z,100046.48
2022-11-19T12:56:43.584Z,100050.04
2022-11-19T12:59:34.444Z,100046.39
2022-11-19T13:02:16.309Z,100040.36
2022-11-19T13:04:53.646Z,100040.66
2022-11-19T13:07:30.237Z,100036.98
2022-11-19T13:10:08.962Z,100030.70
2022-11-19T13:12:46.953Z,100037.24
2022-11-19T13:15:24.222Z,100045.94
2022-11-19T13:17:59.221Z,100042.42
2022-11-19T13:20:41.721Z,100038.23
2022-11-19T13:23:20.939Z,100039.84
2022-11-19T13:26:00.227Z,100035.39
2022-11-19T13:28:37.562Z,100036.73
2022-11-19T13:31:15.402Z,100038.99
2022-11-19T13:33:52.219Z,100041.17
2022-11-19T13:36:32.312Z,100035.48
2022-11-19T13:39:13.473Z,100037.93
2022-11-19T13:42:09.299Z,100037.16
2022-11-19T13:44:42.067Z,100041.65
2022-11-19T13:47:14.824Z,100045.33
2022-11-19T13:49:52.260Z,100043.21
2022-11-19T13:52:31.102Z,100039.87
2022-11-19T13:55:03.800Z,100031.20
2022-11-19T13:57:35.074Z,100033.27
2022-11-19T14:00:22.035Z,100036.48
2022-11-19T14:03:27.327Z,100038.15
2022-11-19T14:06:15.346Z,100043.04
2022-11-19T14:09:10.040Z,100042.34
2022-11-19T14:12:09.216Z,100034.98
2022-11-19T14:15:10.796Z,100032.45
2022-11-19T14:18:06.354Z,100033.37
2022-11-19T14:20:59.620Z,100031.41
2022-11-19T14:24:04.439Z,100031.13
2022-11-19T14:27:18.320Z,100032.01
2022-11-19T14:30:02.127Z,100034.13
2022-11-19T14:32:53.371Z,100038.80
2022-11-19T14:35:40.065Z,100037.11
2022-11-19T14:38:33.335Z,100037.61
2022-11-19T14:41:25.596Z,100038.08
2022-11-19T14:44:32.097Z,100036.98
2022-11-19T14:47:33.798Z,100035.25
2022-11-19T14:50:08.637Z,100032.25
2022-11-19T14:52:52.422Z,100026.44
2022-11-19T14:55:25.682Z,100023.70
2022-11-19T14:58:02.718Z,100028.02
2022-11-19T15:00:37.962Z,100024.44
2022-11-19T15:03:15.005Z,100027.14
2022-11-19T15:05:48.953Z,100022.71
2022-11-19T15:08:50.407Z,100023.08
2022-11-19T15:11:22.581Z,100021.31
2022-11-19T15:14:38.334Z,100022.37
2022-11-19T15:17:12.861Z,100023.35
2022-11-19T15:19:55.567Z,100025.84
2022-11-19T15:22:53.006Z,100025.27
2022-11-19T15:25:37.063Z,100023.14
2022-11-19T15:28:24.313Z,100022.38
2022-11-19T15:31:23.507Z,100023.67
2022-11-19T15:34:18.108Z,100016.89
2022-11-19T15:36:53.331Z,100015.23
2022-11-19T15:39:31.732Z,100016.73
2022-11-19T15:42:07.604Z,100009.67
2022-11-19T15:44:47.313Z,100014.64
2022-11-19T15:47:23.318Z,100010.70
2022-11-19T15:49:58.555Z,100014.08
2022-11-19T15:52:32.118Z,100012.33
2022-11-19T15:55:22.542Z,100012.16
2022-11-19T15:57:56.508Z,100008.98
2022-11-19T16:00:29.465Z,100006.52
2022-11-19T16:03:01.935Z,100008.98
2022-11-19T16:05:34.127Z,100010.55
2022-11-19T16:08:12.052Z,100010.29
2022-11-19T16:10:47.579Z,100009.67
2022-11-19T16:13:44.744Z,100007.49
2022-11-19T16:16:43.858Z,100007.38
2022-11-19T16:19:18.714Z,100007.52
2022-11-19T16:21:55.832Z,100009.52
2022-11-19T16:24:47.938Z,100006.48
2022-11-19T16:27:24.633Z,100007.36
2022-11-19T16:29:56.905Z,100005.44
2022-11-19T16:32:29.648Z,100009.20
2022-11-19T16:35:20.466Z,100004.37
2022-11-19T16:37:53.647Z,100000.42
2022-11-19T16:40:26.056Z,100004.70
2022-11-19T16:43:01.508Z,100002.77
2022-11-19T16:45:34.658Z,100002.20
2022-11-19T16:48:06.749Z,100001.75
2022-11-19T16:50:45.328Z,100004.61
2022-11-19T16:53:48.116Z,100009.52
2022-11-19T16:56:20.186Z,100012.39
2022-11-19T16:58:55.753Z,100008.15
2022-11-19T17:01:29.847Z,100014.81
2022-11-19T17:04:08.149Z,100010.44
2022-11-19T17:06:43.581Z,100016.11
2022-11-19T17:09:41.683Z,100014.19
2022-11-19T17:12:39.403Z,100011.56
2022-11-19T17:15:40.649Z,100010.88
2022-11-19T17:18:19.135Z,100016.03
2022-11-19T17:20:53.646Z,100014.79
2022-11-19T17:23:27.902Z,100014.63
2022-11-19T17:26:01.640Z,100013.38
2022-11-19T17:28:40.844Z,100017.13
2022-11-19T17:31:20.302Z,100010.65
2022-11-19T17:33:54.842Z,100013.03
2022-11-19T17:36:27.652Z,100016.72
2022-11-19T17:38:59.875Z,100020.70
2022-11-19T17:41:50.083Z,100022.15
2022-11-19T17:44:39.290Z,100024.58
2022-11-19T17:47:22.849Z,100020.98
2022-11-19T17:49:55.567Z,100021.48
2022-11-19T17:52:29.938Z,100019.61
2022-11-19T17:55:15.164Z,100015.89
2022-11-19T17:57:46.921Z,100023.48
2022-11-19T18:00:19.372Z,100014.55
2022-11-19T18:02:51.934Z,100017.00
2022-11-19T18:05:26.834Z,100017.83
2022-11-19T18:07:58.576Z,100014.58
2022-11-19T18:10:30.256Z,100019.05
2022-11-19T18:13:02.076Z,100020.09
2022-11-19T18:15:33.799Z,100021.11
2022-11-19T18:18:05.613Z,100023.26
2022-11-19T18:20:37.581Z,100024.55
2022-11-19T18:23:12.695Z,100025.38
2022-11-19T18:25:44.544Z,100029.11
2022-11-19T18:28:16.240Z,100034.48
2022-11-19T18:30:47.911Z,100037.08
2022-11-19T18:33:21.050Z,100035.17
2022-11-19T18:35:52.796Z,100032.39
2022-11-19T18:38:24.747Z,100028.20
2022-11-19T18:40:56.488Z,100041.79
2022-11-19T18:43:46.095Z,100035.13
2022-11-19T18:46:17.756Z,100044.50
2022-11-19T18:48:49.494Z,100041.50
2022-11-19T18:51:21.943Z,100043.59
2022-11-19T18:53:53.813Z,100039.55
2022-11-19T18:56:25.510Z,100046.52
2022-11-19T18:59:03.218Z,100044.77
2022-11-19T19:01:36.731Z,100045.49
2022-11-19T19:04:09.767Z,100043.69
2022-11-19T19:06:42.278Z,100044.68
2022-11-19T19:09:20.240Z,100044.15
2022-11-19T19:12:13.407Z,100043.61
2022-11-19T19:14:47.053Z,100044.38
2022-11-19T19:17:19.022Z,100039.67
2022-11-19T19:19:50.867Z,100045.22
2022-11-19T19:22:22.889Z,100047.07
2022-11-19T19:24:58.110Z,100045.98
2022-11-19T19:27:30.702Z,100055.20
2022-11-19T19:30:02.729Z,100058.83
2022-11-19T19:32:34.421Z,100062.27
2022-11-19T19:35:07.304Z,100063.65
2022-11-19T19:37:39.937Z,100071.84
2022-11-19T19:40:11.818Z,100068.20
2022-11-19T19:42:43.692Z,100067.38
2022-11-19T19:45:15.556Z,100063.67
2022-11-19T19:47:47.603Z,100071.04
2022-11-19T19:50:20.060Z,100073.23
2022-11-19T19:52:52.178Z,100071.14
2022-11-19T19:55:24.220Z,100076.45
2022-11-19T19:57:56.386Z,100076.02
2022-11-19T20:00:28.301Z,100075.36
2022-11-19T20:03:00.091Z,100076.38
2022-11-19T20:05:31.813Z,100079.59
2022-11-19T20:08:03.914Z,100082.61
2022-11-19T20:10:35.786Z,100078.11
2022-11-19T20:13:25.293Z,100081.93
2022-11-19T20:15:59.637Z,100083.77
2022-11-19T20:18:32.896Z,100086.38
2022-11-19T20:21:05.439Z,100087.61
2022-11-19T20:23:37.891Z,100087.41
2022-11-19T20:26:12.247Z,100086.30
2022-11-19T20:28:44.907Z,100085.43
2022-11-19T20:31:18.438Z,100091.23
2022-11-19T20:33:55.339Z,100095.45
2022-11-19T20:36:29.207Z,100093.82
2022-11-19T20:39:01.830Z,100095.20
2022-11-19T20:41:50.111Z,100101.30
2022-11-19T20:44:23.102Z,100100.80
2022-11-19T20:46:57.279Z,100092.53
2022-11-19T20:49:31.663Z,100095.97
2022-11-19T20:52:04.439Z,100093.95
2022-11-19T20:54:37.201Z,100091.67
2022-11-19T20:57:07.765Z,100092.95
2022-11-19T20:59:39.805Z,100092.48
2022-11-19T21:02:14.703Z,100089.91
2022-11-19T21:04:46.739Z,100087.95
2022-11-19T21:07:18.842Z,100088.02
2022-11-19T21:09:50.932Z,100089.48
2022-11-19T21:12:23.957Z,100088.48
2022-11-19T21:14:55.921Z,100084.05
2022-11-19T21:17:28.785Z,100083.66
2022-11-19T21:20:00.753Z,100086.52
2022-11-19T21:22:32.584Z,100084.94
2022-11-19T21:25:09.694Z,100084.39
2022-11-19T21:27:44.185Z,100083.18
2022-11-19T21:30:19.204Z,100085.06
2022-11-19T21:32:50.994Z,100081.70
2022-11-19T21:35:22.716Z,100083.06
2022-11-19T21:37:54.750Z,100085.18
2022-11-19T21:40:26.590Z,100082.89
2022-11-19T21:42:58.365Z,100076.82
2022-11-19T21:45:30.098Z,100080.59
2022-11-19T21:48:01.904Z,100081.36
2022-11-19T21:50:33.975Z,100081.95
2022-11-19T21:53:05.978Z,100083.77
2022-11-19T21:55:39.382Z,100081.71
2022-11-19T21:58:13.131Z,100087.72
2022-11-19T22:00:47.084Z,100082.27
2022-11-19T22:03:18.924Z,100080.34
2022-11-19T22:05:58.659Z,100079.52
2022-11-19T22:08:32.843Z,100077.96
2022-11-19T22:11:25.312Z,100080.65
2022-11-19T22:13:58.869Z,100083.49
2022-11-19T22:16:31.928Z,100080.86
2022-11-19T22:19:03.904Z,100079.79
2022-11-19T22:21:36.291Z,100080.85
2022-11-19T22:24:09.065Z,100078.19
2022-11-19T22:26:39.253Z,100081.96
2022-11-19T22:29:11.115Z,100079.95
2022-11-19T22:31:42.907Z,100076.29
2022-11-19T22:34:15.285Z,100076.94
2022-11-19T22:36:47.035Z,100083.05
2022-11-19T22:39:19.468Z,100083.64
2022-11-19T22:41:51.699Z,100082.05
2022-11-19T22:44:23.856Z,100077.11
2022-11-19T22:46:58.558Z,100082.33
2022-11-19T22:49:30.886Z,100078.64
2022-11-19T22:52:02.589Z,100083.77
2022-11-19T22:54:37.362Z,100081.60
2022-11-19T22:57:13.649Z,100079.30
2022-11-19T22:59:45.355Z,100077.40
2022-11-19T23:02:19.530Z,100081.17
2022-11-19T23:04:51.583Z,100079.95
2022-11-19T23:07:23.362Z,100079.80
2022-11-19T23:09:55.083Z,100074.56
2022-11-19T23:12:44.499Z,100070.70
2022-11-19T23:15:16.135Z,100075.77
2022-11-19T23:17:48.355Z,100077.23
2022-11-19T23:20:20.284Z,100074.48
2022-11-19T23:22:51.968Z,100074.85
2022-11-19T23:25:24.011Z,100067.70
2022-11-19T23:27:55.862Z,100066.81
2022-11-19T23:30:27.598Z,100065.88
2022-11-19T23:32:59.302Z,100062.86
2022-11-19T23:35:31.136Z,100067.35
2022-11-19T23:38:02.892Z,100070.80
2022-11-19T23:40:34.720Z,100063.09
2022-11-19T23:43:07.381Z,100067.39
2022-11-19T23:45:39.069Z,100064.85
2022-11-19T23:48:11.035Z,100065.83
2022-11-19T23:50:42.748Z,100062.57
2022-11-19T23:53:14.502Z,100055.84
2022-11-19T23:55:49.467Z,100054.98
2022-11-19T23:58:21.319Z,100053.52
